Halesite, New York
Current Conditions -  °F | °C
As of 2:53 PM on Monday 24 Nov 2014 (Local Time) from KFRG Reporting Station
Haze Haze  
Wind Chill: 15°   Ceiling: 200
Heat Index: 15°   Visibility: 0.5mi
Dew Point: 14°   Wind: 20mph
Humidity: 93%   Direction: 200°SSW
Pressure: 29.62"   Gusts: 26mph
Location:  40.8966°N, 73.4362°W
Report Text: KFRG 241953Z 20017G23KT 1/2SM BR OVC002 15/14 A2962 RMK AO2 PK WND 20029/1904 SFC VIS 1 1/4 SLP028 T01500139
Loading
Personal Weather Stations






























Interactive Weather Map New forecast layout! Learn more

10-Day Weather Forecast

Advertisements
Track Severe Weather on mobile